createdAt,value
2018-08-19T00:00:32.884Z,99.99
2018-08-19T00:01:32.952Z,99.99
2018-08-19T00:02:33.027Z,99.99
2018-08-19T00:03:33.088Z,99.99
2018-08-19T00:04:33.148Z,99.99
2018-08-19T00:05:33.212Z,99.99
2018-08-19T00:06:33.278Z,99.99
2018-08-19T00:07:33.356Z,99.99
2018-08-19T00:08:33.412Z,99.99
2018-08-19T00:09:33.472Z,99.99
2018-08-19T00:10:33.536Z,99.99
2018-08-19T00:11:33.601Z,99.99
2018-08-19T00:12:33.672Z,99.99
2018-08-19T00:13:33.736Z,99.99
2018-08-19T00:14:33.796Z,99.99
2018-08-19T00:15:33.864Z,99.99
2018-08-19T00:16:33.928Z,99.99
2018-08-19T00:17:34.001Z,99.99
2018-08-19T00:18:34.064Z,99.99
2018-08-19T00:19:34.128Z,99.99
2018-08-19T00:20:34.188Z,99.99
2018-08-19T00:21:34.257Z,99.99
2018-08-19T00:22:34.317Z,99.99
2018-08-19T00:23:34.399Z,99.99
2018-08-19T00:24:34.448Z,99.99
2018-08-19T00:25:34.513Z,99.99
2018-08-19T00:26:34.577Z,99.99
2018-08-19T00:27:34.648Z,99.99
2018-08-19T00:28:34.717Z,99.99
2018-08-19T00:29:34.776Z,99.99
2018-08-19T00:30:34.837Z,99.99
2018-08-19T00:31:34.901Z,99.99
2018-08-19T00:32:34.968Z,99.99
2018-08-19T00:33:35.037Z,99.99
2018-08-19T00:34:35.105Z,99.99
2018-08-19T00:35:35.166Z,99.99
2018-08-19T00:36:35.227Z,99.99
2018-08-19T00:37:35.293Z,99.99
2018-08-19T00:38:35.365Z,99.99
2018-08-19T00:39:35.429Z,99.99
2018-08-19T00:40:35.485Z,99.99
2018-08-19T00:41:35.549Z,99.99
2018-08-19T00:42:35.617Z,99.99
2018-08-19T00:43:35.693Z,99.99
2018-08-19T00:44:35.756Z,99.99
2018-08-19T00:45:35.813Z,99.99
2018-08-19T00:46:35.877Z,99.99
2018-08-19T00:47:35.941Z,99.99
2018-08-19T00:48:36.017Z,99.99
2018-08-19T00:49:36.079Z,99.99
2018-08-19T00:50:36.138Z,99.99
2018-08-19T00:51:36.202Z,99.99
2018-08-19T00:52:36.266Z,99.99
2018-08-19T00:53:36.338Z,99.99
2018-08-19T00:54:36.405Z,99.99
2018-08-19T00:55:36.464Z,99.99
2018-08-19T00:56:36.526Z,99.99
2018-08-19T00:57:36.590Z,99.99
2018-08-19T00:58:36.662Z,99.99
2018-08-19T00:59:36.730Z,99.99
2018-08-19T01:00:36.786Z,99.99
2018-08-19T01:01:36.850Z,99.99
2018-08-19T01:02:36.917Z,99.99
2018-08-19T01:03:36.987Z,99.99
2018-08-19T01:04:37.051Z,99.99
2018-08-19T01:05:37.110Z,99.99
2018-08-19T01:06:37.175Z,99.99
2018-08-19T01:07:37.247Z,99.99
2018-08-19T01:08:37.415Z,99.99
2018-08-19T01:09:37.370Z,99.99
2018-08-19T01:10:37.440Z,99.99
2018-08-19T01:11:37.500Z,99.99
2018-08-19T01:12:37.563Z,99.99
2018-08-19T01:13:37.639Z,99.99
2018-08-19T01:14:37.711Z,99.99
2018-08-19T01:15:37.760Z,99.99
2018-08-19T01:16:37.823Z,99.99
2018-08-19T01:17:37.887Z,99.99
2018-08-19T01:18:37.958Z,99.99
2018-08-19T01:19:38.027Z,99.99
2018-08-19T01:20:38.083Z,99.99
2018-08-19T01:21:38.152Z,99.99
2018-08-19T01:22:38.211Z,99.99
2018-08-19T01:23:38.295Z,99.99
2018-08-19T01:24:38.343Z,99.99
2018-08-19T01:25:38.407Z,99.99
2018-08-19T01:26:38.472Z,99.99
2018-08-19T01:27:38.536Z,99.99
2018-08-19T01:28:38.607Z,99.99
2018-08-19T01:29:38.673Z,99.99
2018-08-19T01:30:38.731Z,99.99
2018-08-19T01:31:38.795Z,99.99
2018-08-19T01:32:38.859Z,99.99
2018-08-19T01:33:38.935Z,99.99
2018-08-19T01:34:38.996Z,99.99
2018-08-19T01:35:39.055Z,99.99
2018-08-19T01:36:39.119Z,99.99
2018-08-19T01:37:39.183Z,99.99
2018-08-19T01:38:39.403Z,99.99
2018-08-19T01:39:39.312Z,99.99
2018-08-19T01:40:39.375Z,99.99
2018-08-19T01:41:39.447Z,99.99
2018-08-19T01:42:39.508Z,99.99
2018-08-19T01:43:39.580Z,99.99
2018-08-19T01:44:39.643Z,99.99
2018-08-19T01:45:39.700Z,99.99
2018-08-19T01:46:39.767Z,99.99
2018-08-19T01:47:39.832Z,99.99
2018-08-19T01:48:39.900Z,99.99
2018-08-19T01:49:39.964Z,99.99
2018-08-19T01:50:40.024Z,99.99
2018-08-19T01:51:40.092Z,99.99
2018-08-19T01:52:40.152Z,99.99
2018-08-19T01:53:40.236Z,99.99
2018-08-19T01:54:40.284Z,99.99
2018-08-19T01:55:40.352Z,99.99
2018-08-19T01:56:40.413Z,99.99
2018-08-19T01:57:40.476Z,99.99
2018-08-19T01:58:40.548Z,99.99
2018-08-19T01:59:40.612Z,99.99
2018-08-19T02:00:40.668Z,99.99
2018-08-19T02:01:40.737Z,99.99
2018-08-19T02:02:40.808Z,99.99
2018-08-19T02:03:40.872Z,99.99
2018-08-19T02:04:40.936Z,99.99
2018-08-19T02:05:40.992Z,99.99
2018-08-19T02:06:41.057Z,99.99
2018-08-19T02:07:41.125Z,99.99
2018-08-19T02:08:41.277Z,99.99
2018-08-19T02:09:41.253Z,99.99
2018-08-19T02:10:41.317Z,99.99
2018-08-19T02:11:41.381Z,99.99
2018-08-19T02:12:41.444Z,99.99
2018-08-19T02:13:41.517Z,99.99
2018-08-19T02:14:41.581Z,99.99
2018-08-19T02:15:41.641Z,99.99
2018-08-19T02:16:41.709Z,99.99
2018-08-19T02:17:41.769Z,99.99
2018-08-19T02:18:41.833Z,99.99
2018-08-19T02:19:41.955Z,99.99
2018-08-19T02:20:42.020Z,99.99
2018-08-19T02:21:42.025Z,99.99
2018-08-19T02:22:42.090Z,99.99
2018-08-19T02:23:42.169Z,99.99
2018-08-19T02:24:42.217Z,99.99
2018-08-19T02:25:42.287Z,99.99
2018-08-19T02:26:42.349Z,99.99
2018-08-19T02:27:42.414Z,99.99
2018-08-19T02:28:42.486Z,99.99
2018-08-19T02:29:42.566Z,99.99
2018-08-19T02:30:42.606Z,99.99
2018-08-19T02:31:42.674Z,99.99
2018-08-19T02:32:42.734Z,99.99
2018-08-19T02:33:42.805Z,99.99
2018-08-19T02:34:42.870Z,99.99
2018-08-19T02:35:42.933Z,99.99
2018-08-19T02:36:42.997Z,99.99
2018-08-19T02:37:43.058Z,99.99
2018-08-19T02:38:43.282Z,99.99
2018-08-19T02:39:43.186Z,99.99
2018-08-19T02:40:43.262Z,99.99
2018-08-19T02:41:43.326Z,99.99
2018-08-19T02:42:43.382Z,99.99
2018-08-19T02:43:43.462Z,99.99
2018-08-19T02:44:43.526Z,99.99
2018-08-19T02:45:43.582Z,99.99
2018-08-19T02:46:43.642Z,99.99
2018-08-19T02:47:43.702Z,99.99
2018-08-19T02:48:43.782Z,99.99
2018-08-19T02:49:43.846Z,99.99
2018-08-19T02:50:43.898Z,99.99
2018-08-19T02:51:43.963Z,99.99
2018-08-19T02:52:44.030Z,99.99
2018-08-19T02:53:44.143Z,99.99
2018-08-19T02:54:44.160Z,99.99
2018-08-19T02:55:44.218Z,99.99
2018-08-19T02:56:44.288Z,99.99
2018-08-19T02:57:44.346Z,99.99
2018-08-19T02:58:44.418Z,99.99
2018-08-19T02:59:44.482Z,99.99
2018-08-19T03:00:44.538Z,99.99
2018-08-19T03:01:44.613Z,99.99
2018-08-19T03:02:44.670Z,99.99
2018-08-19T03:03:44.743Z,99.99
2018-08-19T03:04:44.802Z,99.99
2018-08-19T03:05:44.862Z,99.99
2018-08-19T03:06:44.926Z,99.99
2018-08-19T03:07:44.990Z,99.99
2018-08-19T03:08:45.062Z,99.99
2018-08-19T03:09:45.127Z,99.99
2018-08-19T03:10:45.186Z,99.99
2018-08-19T03:11:45.251Z,99.99
2018-08-19T03:12:45.315Z,99.99
2018-08-19T03:13:45.383Z,99.99
2018-08-19T03:14:45.447Z,99.99
2018-08-19T03:15:45.507Z,99.99
2018-08-19T03:16:45.571Z,99.99
2018-08-19T03:17:45.635Z,99.99
2018-08-19T03:18:45.707Z,99.99
2018-08-19T03:19:45.771Z,99.99
2018-08-19T03:20:45.838Z,99.99
2018-08-19T03:21:45.891Z,99.99
2018-08-19T03:22:45.961Z,99.99
2018-08-19T03:23:46.027Z,99.99
2018-08-19T03:24:46.091Z,99.99
2018-08-19T03:25:46.152Z,99.99
2018-08-19T03:26:46.221Z,99.99
2018-08-19T03:27:46.281Z,99.99
2018-08-19T03:28:46.371Z,99.99
2018-08-19T03:29:46.408Z,99.99
2018-08-19T03:30:46.472Z,99.99
2018-08-19T03:31:46.536Z,99.99
2018-08-19T03:32:46.600Z,99.99
2018-08-19T03:33:46.671Z,99.99
2018-08-19T03:34:46.737Z,99.99
2018-08-19T03:35:46.796Z,99.99
2018-08-19T03:36:46.864Z,99.99
2018-08-19T03:37:46.979Z,99.99
2018-08-19T03:38:46.992Z,99.99
2018-08-19T03:39:47.061Z,99.99
2018-08-19T03:40:47.116Z,99.99
2018-08-19T03:41:47.180Z,99.99
2018-08-19T03:42:47.245Z,99.99
2018-08-19T03:43:47.310Z,99.99
2018-08-19T03:44:47.396Z,99.99
2018-08-19T03:45:47.437Z,99.99
2018-08-19T03:46:47.504Z,99.99
2018-08-19T03:47:47.567Z,99.99
2018-08-19T03:48:47.630Z,99.99
2018-08-19T03:49:47.700Z,99.99
2018-08-19T03:50:47.764Z,99.99
2018-08-19T03:51:47.824Z,99.99
2018-08-19T03:52:47.888Z,99.99
2018-08-19T03:53:47.953Z,99.99
2018-08-19T03:54:48.025Z,99.99
2018-08-19T03:55:48.100Z,99.99
2018-08-19T03:56:48.145Z,99.99
2018-08-19T03:57:48.209Z,99.99
2018-08-19T03:58:48.273Z,99.99
2018-08-19T03:59:48.371Z,99.99
2018-08-19T04:00:48.403Z,99.99
2018-08-19T04:01:48.465Z,99.99
2018-08-19T04:02:48.528Z,99.99
2018-08-19T04:03:48.596Z,99.99
2018-08-19T04:04:48.664Z,99.99
2018-08-19T04:05:48.729Z,99.99
2018-08-19T04:06:48.797Z,99.99
2018-08-19T04:07:48.853Z,99.99
2018-08-19T04:08:48.919Z,99.99
2018-08-19T04:09:48.985Z,99.99
2018-08-19T04:10:49.055Z,99.99
2018-08-19T04:11:49.109Z,99.99
2018-08-19T04:12:49.173Z,99.99
2018-08-19T04:13:49.240Z,99.99
2018-08-19T04:14:49.297Z,99.99
2018-08-19T04:15:49.389Z,99.99
2018-08-19T04:16:49.429Z,99.99
2018-08-19T04:17:49.493Z,99.99
2018-08-19T04:18:49.561Z,99.99
2018-08-19T04:19:49.625Z,99.99
2018-08-19T04:20:49.697Z,99.99
2018-08-19T04:21:49.762Z,99.99
2018-08-19T04:22:49.813Z,99.99
2018-08-19T04:23:49.878Z,99.99
2018-08-19T04:24:49.941Z,99.99
2018-08-19T04:25:50.013Z,99.99
2018-08-19T04:26:50.077Z,99.99
2018-08-19T04:27:50.137Z,99.99
2018-08-19T04:28:50.198Z,99.99
2018-08-19T04:29:50.265Z,99.99
2018-08-19T04:30:50.333Z,99.99
2018-08-19T04:31:50.397Z,99.99
2018-08-19T04:32:50.460Z,99.99
2018-08-19T04:33:50.521Z,99.99
2018-08-19T04:34:50.589Z,99.99
2018-08-19T04:35:50.658Z,99.99
2018-08-19T04:36:50.721Z,99.99
2018-08-19T04:37:50.778Z,99.99
2018-08-19T04:38:50.844Z,99.99
2018-08-19T04:39:50.906Z,99.99
2018-08-19T04:40:50.978Z,99.99
2018-08-19T04:41:51.042Z,99.99
2018-08-19T04:42:51.098Z,99.99
2018-08-19T04:43:51.168Z,99.99
2018-08-19T04:44:51.226Z,99.99
2018-08-19T04:45:51.290Z,99.99
2018-08-19T04:46:51.374Z,99.99
2018-08-19T04:47:51.418Z,99.99
2018-08-19T04:48:51.482Z,99.99
2018-08-19T04:49:51.546Z,99.99
2018-08-19T04:50:51.611Z,99.99
2018-08-19T04:51:51.686Z,99.99
2018-08-19T04:52:51.746Z,99.99
2018-08-19T04:53:51.806Z,99.99
2018-08-19T04:54:51.871Z,99.99
2018-08-19T04:55:51.936Z,99.99
2018-08-19T04:56:52.002Z,99.99
2018-08-19T04:57:52.066Z,99.99
2018-08-19T04:58:52.127Z,99.99
2018-08-19T04:59:52.191Z,99.99
2018-08-19T05:00:52.258Z,99.99
2018-08-19T05:01:52.319Z,99.99
2018-08-19T05:02:52.403Z,99.99
2018-08-19T05:03:52.451Z,99.99
2018-08-19T05:04:52.506Z,99.99
2018-08-19T05:05:52.575Z,99.99
2018-08-19T05:06:52.639Z,99.99
2018-08-19T05:07:52.730Z,99.99
2018-08-19T05:08:52.775Z,99.99
2018-08-19T05:09:52.834Z,99.99
2018-08-19T05:10:52.895Z,99.99
2018-08-19T05:11:52.963Z,99.99
2018-08-19T05:12:53.032Z,99.99
2018-08-19T05:13:53.099Z,99.99
2018-08-19T05:14:53.155Z,99.99
2018-08-19T05:15:53.219Z,99.99
2018-08-19T05:16:53.308Z,99.99
2018-08-19T05:17:53.367Z,99.99
2018-08-19T05:18:53.411Z,99.99
2018-08-19T05:19:53.475Z,99.99
2018-08-19T05:20:53.539Z,99.99
2018-08-19T05:21:53.604Z,99.99
2018-08-19T05:22:53.676Z,99.99
2018-08-19T05:23:53.740Z,99.99
2018-08-19T05:24:53.800Z,99.99
2018-08-19T05:25:53.867Z,99.99
2018-08-19T05:26:53.928Z,99.99
2018-08-19T05:27:54.000Z,99.99
2018-08-19T05:28:54.060Z,99.99
2018-08-19T05:29:54.120Z,99.99
2018-08-19T05:30:54.183Z,99.99
2018-08-19T05:31:54.248Z,99.99
2018-08-19T05:32:54.436Z,99.99
2018-08-19T05:33:54.380Z,99.99
2018-08-19T05:34:54.444Z,99.99
2018-08-19T05:35:54.555Z,99.99
2018-08-19T05:36:54.572Z,99.99
2018-08-19T05:37:54.670Z,99.99
2018-08-19T05:38:54.710Z,99.99
2018-08-19T05:39:54.764Z,99.99
2018-08-19T05:40:54.828Z,99.99
2018-08-19T05:41:54.897Z,99.99
2018-08-19T05:42:54.964Z,99.99
2018-08-19T05:43:55.029Z,99.99
2018-08-19T05:44:55.094Z,99.99
2018-08-19T05:45:55.153Z,99.99
2018-08-19T05:46:55.225Z,99.99
2018-08-19T05:47:55.285Z,99.99
2018-08-19T05:48:55.557Z,99.99
2018-08-19T05:49:55.413Z,99.99
2018-08-19T05:50:55.476Z,99.99
2018-08-19T05:51:55.541Z,99.99
2018-08-19T05:52:55.609Z,99.99
2018-08-19T05:53:55.688Z,99.99
2018-08-19T05:54:55.742Z,99.99
2018-08-19T05:55:55.803Z,99.99
2018-08-19T05:56:55.869Z,99.99
2018-08-19T05:57:55.929Z,99.99
2018-08-19T05:58:56.001Z,99.99
2018-08-19T05:59:56.065Z,99.99
2018-08-19T06:00:56.121Z,99.99
2018-08-19T06:01:56.201Z,99.99
2018-08-19T06:02:56.253Z,99.99
2018-08-19T06:03:56.434Z,99.99
2018-08-19T06:04:56.381Z,99.99
2018-08-19T06:05:56.445Z,99.99
2018-08-19T06:06:56.517Z,99.99
2018-08-19T06:07:56.578Z,99.99
2018-08-19T06:08:56.645Z,99.99
2018-08-19T06:09:56.714Z,99.99
2018-08-19T06:10:56.779Z,99.99
2018-08-19T06:11:56.838Z,99.99
2018-08-19T06:12:56.901Z,99.99
2018-08-19T06:13:56.977Z,99.99
2018-08-19T06:14:57.042Z,99.99
2018-08-19T06:15:57.206Z,99.99
2018-08-19T06:16:57.174Z,99.99
2018-08-19T06:17:57.226Z,99.99
2018-08-19T06:18:57.318Z,99.99
2018-08-19T06:19:57.358Z,99.99
2018-08-19T06:20:57.449Z,99.99
2018-08-19T06:21:57.551Z,99.99
2018-08-19T06:22:57.550Z,99.99
2018-08-19T06:23:57.622Z,99.99
2018-08-19T06:24:57.686Z,99.99
2018-08-19T06:25:57.746Z,99.99
2018-08-19T06:26:57.810Z,99.99
2018-08-19T06:27:57.874Z,99.99
2018-08-19T06:28:57.946Z,99.99
2018-08-19T06:29:58.015Z,99.99
2018-08-19T06:30:58.078Z,99.99
2018-08-19T06:31:58.142Z,99.99
2018-08-19T06:32:58.202Z,99.99
2018-08-19T06:33:58.390Z,99.99
2018-08-19T06:34:58.551Z,99.99
2018-08-19T06:35:58.399Z,99.99
2018-08-19T06:36:58.463Z,99.99
2018-08-19T06:37:58.526Z,99.99
2018-08-19T06:38:58.602Z,99.99
2018-08-19T06:39:58.666Z,99.99
2018-08-19T06:40:58.722Z,99.99
2018-08-19T06:41:58.786Z,99.99
2018-08-19T06:42:58.874Z,99.99
2018-08-19T06:43:58.926Z,99.99
2018-08-19T06:44:58.991Z,99.99
2018-08-19T06:45:59.051Z,99.99
2018-08-19T06:46:59.114Z,99.99
2018-08-19T06:47:59.182Z,99.99
2018-08-19T06:48:59.359Z,99.99
2018-08-19T06:49:59.311Z,99.99
2018-08-19T06:50:59.379Z,99.99
2018-08-19T06:51:59.443Z,99.99
2018-08-19T06:52:59.507Z,99.99
2018-08-19T06:53:59.579Z,99.99
2018-08-19T06:54:59.647Z,99.99
2018-08-19T06:55:59.703Z,99.40
2018-08-19T06:56:59.771Z,99.99
2018-08-19T06:57:59.835Z,98.91
2018-08-19T06:58:59.907Z,99.06
2018-08-19T06:59:59.975Z,97.91
2018-08-19T07:01:00.035Z,96.56
2018-08-19T07:02:00.100Z,94.44
2018-08-19T07:03:00.164Z,89.81
2018-08-19T07:04:00.460Z,83.53
2018-08-19T07:05:00.347Z,81.20
2018-08-19T07:06:00.364Z,76.90
2018-08-19T07:07:00.431Z,75.04
2018-08-19T07:08:00.509Z,71.50
2018-08-19T07:09:00.575Z,71.24
2018-08-19T07:10:00.644Z,69.15
2018-08-19T07:11:00.707Z,68.50
2018-08-19T07:12:00.776Z,67.85
2018-08-19T07:13:00.844Z,65.56
2018-08-19T07:14:00.933Z,65.69
2018-08-19T07:15:00.992Z,65.59
2018-08-19T07:16:01.060Z,64.85
2018-08-19T07:17:01.128Z,64.53
2018-08-19T07:18:01.196Z,63.88
2018-08-19T07:19:01.388Z,62.42
2018-08-19T07:20:01.353Z,63.29
2018-08-19T07:21:01.412Z,62.32
2018-08-19T07:22:01.485Z,61.35
2018-08-19T07:23:01.560Z,61.29
2018-08-19T07:24:01.640Z,63.26
2018-08-19T07:25:01.719Z,60.15
2018-08-19T07:26:01.778Z,59.28
2018-08-19T07:27:01.853Z,60.28
2018-08-19T07:28:01.925Z,61.35
2018-08-19T07:29:02.004Z,56.87
2018-08-19T07:30:02.089Z,57.29
2018-08-19T07:31:02.149Z,57.97
2018-08-19T07:32:02.224Z,57.20
2018-08-19T07:33:02.297Z,56.81
2018-08-19T07:34:02.381Z,57.12
2018-08-19T07:35:02.457Z,55.79
2018-08-19T07:36:02.525Z,55.89
2018-08-19T07:37:02.713Z,54.69
2018-08-19T07:38:02.677Z,54.62
2018-08-19T07:39:02.757Z,56.35
2018-08-19T07:40:02.833Z,57.00
2018-08-19T07:41:02.901Z,56.74
2018-08-19T07:42:02.977Z,56.05
2018-08-19T07:43:03.054Z,57.15
2018-08-19T07:44:03.313Z,55.79
2018-08-19T07:45:03.209Z,55.69
2018-08-19T07:46:03.282Z,55.23
2018-08-19T07:47:03.357Z,55.04
2018-08-19T07:48:03.437Z,54.97
2018-08-19T07:49:03.518Z,54.31
2018-08-19T07:50:03.594Z,53.70
2018-08-19T07:51:03.661Z,53.38
2018-08-19T07:52:03.742Z,54.87
2018-08-19T07:53:03.853Z,54.21
2018-08-19T07:54:03.898Z,53.34
2018-08-19T07:55:04.074Z,50.90
2018-08-19T07:56:04.049Z,52.19
2018-08-19T07:57:04.130Z,51.78
2018-08-19T07:58:04.207Z,52.17
2018-08-19T07:59:04.426Z,52.07
2018-08-19T08:00:04.354Z,52.87
2018-08-19T08:01:04.430Z,53.07
2018-08-19T08:02:04.510Z,51.92
2018-08-19T08:03:04.587Z,50.56
2018-08-19T08:04:04.674Z,48.80
2018-08-19T08:05:04.748Z,50.36
2018-08-19T08:06:04.818Z,50.10
2018-08-19T08:07:04.893Z,49.10
2018-08-19T08:08:04.974Z,48.32
2018-08-19T08:09:05.062Z,48.63
2018-08-19T08:10:05.137Z,48.41
2018-08-19T08:11:05.229Z,49.00
2018-08-19T08:12:05.283Z,48.63
2018-08-19T08:13:05.361Z,47.46
2018-08-19T08:14:05.454Z,46.21
2018-08-19T08:15:05.518Z,46.62
2018-08-19T08:16:05.598Z,46.45
2018-08-19T08:17:05.677Z,45.51
2018-08-19T08:18:05.751Z,47.17
2018-08-19T08:19:05.918Z,48.32
2018-08-19T08:20:05.918Z,48.46
2018-08-19T08:21:06.041Z,51.09
2018-08-19T08:22:06.063Z,49.46
2018-08-19T08:23:06.138Z,49.99
2018-08-19T08:24:06.231Z,52.19
2018-08-19T08:25:06.296Z,52.58
2018-08-19T08:26:06.371Z,54.08
2018-08-19T08:27:06.447Z,54.61
2018-08-19T08:28:06.524Z,55.94
2018-08-19T08:29:06.610Z,56.98
2018-08-19T08:30:06.679Z,56.50
2018-08-19T08:31:06.750Z,57.28
2018-08-19T08:32:06.827Z,57.93
2018-08-19T08:33:06.903Z,58.77
2018-08-19T08:34:06.983Z,60.30
2018-08-19T08:35:07.054Z,61.04
2018-08-19T08:36:07.122Z,58.36
2018-08-19T08:37:07.202Z,59.20
2018-08-19T08:38:07.275Z,60.36
2018-08-19T08:39:07.347Z,61.59
2018-08-19T08:40:07.527Z,60.35
2018-08-19T08:41:07.495Z,58.08
2018-08-19T08:42:07.567Z,56.26
2018-08-19T08:43:07.639Z,55.00
2018-08-19T08:44:07.716Z,55.75
2018-08-19T08:45:07.795Z,56.60
2018-08-19T08:46:07.867Z,56.40
2018-08-19T08:47:07.935Z,58.41
2018-08-19T08:48:08.011Z,57.44
2018-08-19T08:49:08.085Z,57.76
2018-08-19T08:50:08.179Z,56.96
2018-08-19T08:51:08.232Z,58.29
2018-08-19T08:52:08.311Z,58.94
2018-08-19T08:53:08.380Z,59.49
2018-08-19T08:54:08.448Z,60.39
2018-08-19T08:55:08.527Z,60.61
2018-08-19T08:56:08.607Z,59.03
2018-08-19T08:57:08.667Z,60.03
2018-08-19T08:58:08.739Z,59.26
2018-08-19T08:59:08.812Z,58.67
2018-08-19T09:00:08.892Z,56.00
2018-08-19T09:01:08.963Z,54.61
2018-08-19T09:02:09.032Z,55.46
2018-08-19T09:03:09.121Z,56.98
2018-08-19T09:04:09.177Z,56.98
2018-08-19T09:05:09.372Z,56.96
2018-08-19T09:06:09.328Z,58.03
2018-08-19T09:07:09.401Z,57.76
2018-08-19T09:08:09.468Z,57.83
2018-08-19T09:09:09.544Z,56.89
2018-08-19T09:10:09.620Z,57.22
2018-08-19T09:11:09.688Z,56.89
2018-08-19T09:12:09.760Z,58.39
2018-08-19T09:13:09.832Z,57.51
2018-08-19T09:14:09.904Z,59.71
2018-08-19T09:15:09.985Z,60.36
2018-08-19T09:16:10.057Z,60.97
2018-08-19T09:17:10.121Z,59.06
2018-08-19T09:18:10.192Z,60.20
2018-08-19T09:19:10.322Z,59.88
2018-08-19T09:20:10.372Z,59.69
2018-08-19T09:21:10.409Z,61.49
2018-08-19T09:22:10.481Z,61.76
2018-08-19T09:23:10.671Z,62.53
2018-08-19T09:24:10.625Z,61.82
2018-08-19T09:25:10.701Z,59.36
2018-08-19T09:26:10.773Z,59.71
2018-08-19T09:27:10.837Z,60.27
2018-08-19T09:28:10.909Z,61.01
2018-08-19T09:29:10.981Z,62.24
2018-08-19T09:30:11.057Z,62.34
2018-08-19T09:31:11.130Z,62.43
2018-08-19T09:32:11.193Z,62.63
2018-08-19T09:33:11.265Z,63.21
2018-08-19T09:34:11.337Z,63.31
2018-08-19T09:35:11.413Z,64.37
2018-08-19T09:36:11.481Z,63.18
2018-08-19T09:37:11.548Z,62.79
2018-08-19T09:38:11.619Z,64.59
2018-08-19T09:39:11.689Z,64.40
2018-08-19T09:40:11.794Z,62.95
2018-08-19T09:41:11.833Z,60.06
2018-08-19T09:42:11.898Z,58.67
2018-08-19T09:43:11.973Z,57.40
2018-08-19T09:44:12.046Z,56.72
2018-08-19T09:45:12.159Z,56.67
2018-08-19T09:46:12.186Z,57.51
2018-08-19T09:47:12.257Z,58.51
2018-08-19T09:48:12.325Z,57.15
2018-08-19T09:49:12.394Z,57.90
2018-08-19T09:50:12.469Z,58.41
2018-08-19T09:51:12.542Z,56.89
2018-08-19T09:52:12.607Z,57.23
2018-08-19T09:53:12.678Z,55.51
2018-08-19T09:54:12.801Z,53.69
2018-08-19T09:55:12.826Z,53.79
2018-08-19T09:56:12.910Z,54.50
2018-08-19T09:57:12.958Z,53.75
2018-08-19T09:58:13.030Z,52.99
2018-08-19T09:59:13.107Z,53.19
2018-08-19T10:00:13.274Z,52.12
2018-08-19T10:01:13.250Z,52.12
2018-08-19T10:02:13.318Z,50.85
2018-08-19T10:03:13.390Z,50.73
2018-08-19T10:04:13.468Z,52.60
2018-08-19T10:05:13.538Z,51.26
2018-08-19T10:06:13.611Z,50.73
2018-08-19T10:07:13.680Z,53.20
2018-08-19T10:08:13.747Z,54.13
2018-08-19T10:09:13.819Z,54.13
2018-08-19T10:10:13.898Z,54.83
2018-08-19T10:11:13.979Z,53.83
2018-08-19T10:12:14.034Z,54.35
2018-08-19T10:13:14.107Z,55.13
2018-08-19T10:14:14.179Z,53.96
2018-08-19T10:15:14.355Z,54.96
2018-08-19T10:16:14.327Z,54.11
2018-08-19T10:17:14.391Z,54.30
2018-08-19T10:18:14.466Z,53.69
2018-08-19T10:19:14.538Z,54.74
2018-08-19T10:20:14.615Z,54.03
2018-08-19T10:21:14.687Z,54.68
2018-08-19T10:22:14.750Z,55.68
2018-08-19T10:23:14.824Z,54.97
2018-08-19T10:24:14.894Z,55.49
2018-08-19T10:25:14.971Z,55.51
2018-08-19T10:26:15.046Z,54.30
2018-08-19T10:27:15.106Z,53.42
2018-08-19T10:28:15.179Z,53.14
2018-08-19T10:29:15.427Z,52.48
2018-08-19T10:30:15.355Z,52.38
2018-08-19T10:31:15.422Z,54.16
2018-08-19T10:32:15.467Z,52.82
2018-08-19T10:33:15.532Z,55.03
2018-08-19T10:34:15.607Z,55.00
2018-08-19T10:35:15.687Z,54.44
2018-08-19T10:36:15.773Z,54.71
2018-08-19T10:37:15.823Z,55.71
2018-08-19T10:38:15.891Z,55.13
2018-08-19T10:39:16.036Z,54.54
2018-08-19T10:40:16.044Z,54.03
2018-08-19T10:41:16.111Z,54.90
2018-08-19T10:42:16.179Z,54.52
2018-08-19T10:43:16.247Z,55.29
2018-08-19T10:44:16.322Z,54.22
2018-08-19T10:45:16.487Z,55.51
2018-08-19T10:46:16.527Z,53.28
2018-08-19T10:47:16.532Z,54.76
2018-08-19T10:48:16.603Z,51.92
2018-08-19T10:49:16.680Z,52.82
2018-08-19T10:50:16.752Z,53.28
2018-08-19T10:51:16.824Z,53.20
2018-08-19T10:52:16.888Z,52.04
2018-08-19T10:53:16.961Z,53.59
2018-08-19T10:54:17.028Z,54.11
2018-08-19T10:55:17.188Z,53.14
2018-08-19T10:56:17.178Z,53.89
2018-08-19T10:57:17.240Z,52.79
2018-08-19T10:58:17.363Z,53.67
2018-08-19T10:59:17.384Z,53.25
2018-08-19T11:00:17.460Z,54.22
2018-08-19T11:01:17.532Z,55.00
2018-08-19T11:02:17.593Z,54.05
2018-08-19T11:03:17.664Z,54.54
2018-08-19T11:04:17.740Z,52.98
2018-08-19T11:05:17.816Z,52.98
2018-08-19T11:06:17.884Z,53.38
2018-08-19T11:07:17.952Z,54.05
2018-08-19T11:08:18.017Z,54.28
2018-08-19T11:09:18.088Z,54.28
2018-08-19T11:10:18.176Z,54.86
2018-08-19T11:11:18.228Z,54.28
2018-08-19T11:12:18.304Z,52.82
2018-08-19T11:13:18.390Z,52.14
2018-08-19T11:14:18.444Z,52.69
2018-08-19T11:15:18.520Z,53.01
2018-08-19T11:16:18.589Z,52.69
2018-08-19T11:17:18.656Z,54.18
2018-08-19T11:18:18.725Z,53.50
2018-08-19T11:19:18.792Z,53.74
2018-08-19T11:20:18.872Z,54.58
2018-08-19T11:21:18.949Z,55.46
2018-08-19T11:22:19.005Z,54.66
2018-08-19T11:23:19.077Z,55.46
2018-08-19T11:24:19.149Z,55.85
2018-08-19T11:25:19.237Z,55.88
2018-08-19T11:26:19.293Z,54.39
2018-08-19T11:27:19.361Z,54.49
2018-08-19T11:28:19.429Z,54.58
2018-08-19T11:29:19.501Z,54.49
2018-08-19T11:30:19.579Z,53.93
2018-08-19T11:31:19.686Z,53.83
2018-08-19T11:32:19.714Z,53.91
2018-08-19T11:33:19.786Z,54.52
2018-08-19T11:34:19.853Z,54.78
2018-08-19T11:35:19.929Z,55.88
2018-08-19T11:36:20.001Z,54.44
2018-08-19T11:37:20.065Z,53.08
2018-08-19T11:38:20.134Z,52.79
2018-08-19T11:39:20.206Z,53.28
2018-08-19T11:40:20.370Z,52.92
2018-08-19T11:41:20.346Z,53.99
2018-08-19T11:42:20.418Z,52.53
2018-08-19T11:43:20.513Z,51.17
2018-08-19T11:44:20.558Z,51.07
2018-08-19T11:45:20.634Z,51.77
2018-08-19T11:46:20.706Z,51.75
2018-08-19T11:47:20.770Z,52.72
2018-08-19T11:48:20.842Z,52.92
2018-08-19T11:49:20.910Z,52.53
2018-08-19T11:50:20.986Z,52.33
2018-08-19T11:51:21.062Z,50.75
2018-08-19T11:52:21.126Z,50.29
2018-08-19T11:53:21.202Z,51.26
2018-08-19T11:54:21.262Z,52.53
2018-08-19T11:55:21.360Z,51.97
2018-08-19T11:56:21.407Z,52.55
2018-08-19T11:57:21.476Z,51.97
2018-08-19T11:58:21.546Z,52.26
2018-08-19T11:59:21.619Z,53.06
2018-08-19T12:00:21.715Z,52.48
2018-08-19T12:01:21.767Z,52.97
2018-08-19T12:02:21.835Z,52.28
2018-08-19T12:03:21.903Z,51.02
2018-08-19T12:04:21.971Z,50.82
2018-08-19T12:05:22.055Z,50.43
2018-08-19T12:06:22.119Z,50.43
2018-08-19T12:07:22.187Z,52.19
2018-08-19T12:08:22.254Z,51.21
2018-08-19T12:09:22.327Z,52.31
2018-08-19T12:10:22.411Z,51.04
2018-08-19T12:11:22.471Z,49.49
2018-08-19T12:12:22.539Z,51.02
2018-08-19T12:13:22.615Z,50.92
2018-08-19T12:14:22.687Z,51.80
2018-08-19T12:15:22.759Z,50.04
2018-08-19T12:16:22.835Z,50.75
2018-08-19T12:17:22.895Z,51.04
2018-08-19T12:18:22.964Z,51.24
2018-08-19T12:19:23.036Z,50.85
2018-08-19T12:20:23.219Z,50.34
2018-08-19T12:21:23.179Z,51.90
2018-08-19T12:22:23.248Z,51.14
2018-08-19T12:23:23.320Z,50.14
2018-08-19T12:24:23.393Z,51.12
2018-08-19T12:25:23.470Z,50.82
2018-08-19T12:26:23.536Z,51.09
2018-08-19T12:27:23.650Z,50.21
2018-08-19T12:28:23.680Z,50.12
2018-08-19T12:29:23.752Z,50.53
2018-08-19T12:30:23.823Z,49.24
2018-08-19T12:31:23.900Z,50.24
2018-08-19T12:32:23.971Z,50.92
2018-08-19T12:33:24.035Z,50.31
2018-08-19T12:34:24.105Z,51.84
2018-08-19T12:35:24.188Z,53.04
2018-08-19T12:36:24.245Z,52.26
2018-08-19T12:37:24.342Z,52.33
2018-08-19T12:38:24.388Z,51.48
2018-08-19T12:39:24.460Z,50.73
2018-08-19T12:40:24.581Z,50.92
2018-08-19T12:41:24.608Z,50.43
2018-08-19T12:42:24.672Z,49.97
2018-08-19T12:43:24.744Z,50.07
2018-08-19T12:44:24.812Z,50.36
2018-08-19T12:45:24.896Z,50.26
2018-08-19T12:46:24.965Z,49.68
2018-08-19T12:47:25.029Z,49.00
2018-08-19T12:48:25.097Z,48.71
2018-08-19T12:49:25.173Z,49.88
2018-08-19T12:50:25.348Z,50.85
2018-08-19T12:51:25.357Z,50.16
2018-08-19T12:52:25.390Z,49.02
2018-08-19T12:53:25.453Z,49.90